sensor_id;sensor_type;location;lat;lon;timestamp;P1;durP1;ratioP1;P2;durP2;ratioP2
52320;SDS011;38261;54.090;13.382;2023-04-15T00:00:57;44.27;;;20.60;;
52320;SDS011;38261;54.090;13.382;2023-04-15T00:02:20;39.33;;;19.83;;
52320;SDS011;38261;54.090;13.382;2023-04-15T00:03:42;43.90;;;21.93;;
52320;SDS011;38261;54.090;13.382;2023-04-15T00:05:05;37.87;;;22.27;;
52320;SDS011;38261;54.090;13.382;2023-04-15T00:06:27;46.27;;;22.00;;
52320;SDS011;38261;54.090;13.382;2023-04-15T00:07:49;46.03;;;22.60;;
52320;SDS011;38261;54.090;13.382;2023-04-15T00:09:11;46.47;;;20.17;;
52320;SDS011;38261;54.090;13.382;2023-04-15T00:10:34;42.93;;;21.00;;
52320;SDS011;38261;54.090;13.382;2023-04-15T00:11:56;42.20;;;22.10;;
52320;SDS011;38261;54.090;13.382;2023-04-15T00:13:18;44.60;;;21.63;;
52320;SDS011;38261;54.090;13.382;2023-04-15T00:14:40;40.00;;;20.80;;
52320;SDS011;38261;54.090;13.382;2023-04-15T00:16:03;43.60;;;22.07;;
52320;SDS011;38261;54.090;13.382;2023-04-15T00:17:25;40.20;;;21.30;;
52320;SDS011;38261;54.090;13.382;2023-04-15T00:18:47;38.50;;;22.10;;
52320;SDS011;38261;54.090;13.382;2023-04-15T00:20:09;43.47;;;22.87;;
52320;SDS011;38261;54.090;13.382;2023-04-15T00:21:32;41.73;;;21.30;;
52320;SDS011;38261;54.090;13.382;2023-04-15T00:22:54;44.33;;;21.77;;
52320;SDS011;38261;54.090;13.382;2023-04-15T00:24:16;36.27;;;20.40;;
52320;SDS011;38261;54.090;13.382;2023-04-15T00:25:38;47.10;;;21.07;;
52320;SDS011;38261;54.090;13.382;2023-04-15T00:27:01;43.77;;;21.40;;
52320;SDS011;38261;54.090;13.382;2023-04-15T00:28:24;40.90;;;21.00;;
52320;SDS011;38261;54.090;13.382;2023-04-15T00:29:46;37.10;;;20.83;;
52320;SDS011;38261;54.090;13.382;2023-04-15T00:31:08;36.50;;;20.63;;
52320;SDS011;38261;54.090;13.382;2023-04-15T00:32:30;38.37;;;21.97;;
52320;SDS011;38261;54.090;13.382;2023-04-15T00:33:52;49.53;;;23.03;;
52320;SDS011;38261;54.090;13.382;2023-04-15T00:35:14;41.30;;;22.00;;
52320;SDS011;38261;54.090;13.382;2023-04-15T00:36:37;43.30;;;21.80;;
52320;SDS011;38261;54.090;13.382;2023-04-15T00:37:59;45.57;;;20.07;;
52320;SDS011;38261;54.090;13.382;2023-04-15T00:39:21;45.70;;;22.00;;
52320;SDS011;38261;54.090;13.382;2023-04-15T00:40:43;40.80;;;20.63;;
52320;SDS011;38261;54.090;13.382;2023-04-15T00:42:06;43.70;;;22.17;;
52320;SDS011;38261;54.090;13.382;2023-04-15T00:43:28;41.60;;;20.90;;
52320;SDS011;38261;54.090;13.382;2023-04-15T00:44:50;37.03;;;20.50;;
52320;SDS011;38261;54.090;13.382;2023-04-15T00:46:12;44.60;;;23.10;;
52320;SDS011;38261;54.090;13.382;2023-04-15T00:47:38;37.53;;;20.50;;
52320;SDS011;38261;54.090;13.382;2023-04-15T00:49:03;42.77;;;22.43;;
52320;SDS011;38261;54.090;13.382;2023-04-15T00:50:26;36.33;;;20.70;;
52320;SDS011;38261;54.090;13.382;2023-04-15T00:51:48;44.73;;;22.10;;
52320;SDS011;38261;54.090;13.382;2023-04-15T00:53:11;34.90;;;20.17;;
52320;SDS011;38261;54.090;13.382;2023-04-15T00:54:33;45.60;;;21.37;;
52320;SDS011;38261;54.090;13.382;2023-04-15T00:55:55;44.23;;;21.50;;
52320;SDS011;38261;54.090;13.382;2023-04-15T00:57:17;46.90;;;21.33;;
52320;SDS011;38261;54.090;13.382;2023-04-15T00:58:40;45.63;;;24.03;;
52320;SDS011;38261;54.090;13.382;2023-04-15T01:00:02;48.17;;;23.80;;
52320;SDS011;38261;54.090;13.382;2023-04-15T01:01:28;48.67;;;21.50;;
52320;SDS011;38261;54.090;13.382;2023-04-15T01:02:51;39.87;;;20.80;;
52320;SDS011;38261;54.090;13.382;2023-04-15T01:04:14;44.80;;;20.50;;
52320;SDS011;38261;54.090;13.382;2023-04-15T01:05:37;55.10;;;22.30;;
52320;SDS011;38261;54.090;13.382;2023-04-15T01:06:59;49.23;;;22.33;;
52320;SDS011;38261;54.090;13.382;2023-04-15T01:08:21;38.97;;;22.00;;
52320;SDS011;38261;54.090;13.382;2023-04-15T01:09:44;40.63;;;22.33;;
52320;SDS011;38261;54.090;13.382;2023-04-15T01:11:06;43.80;;;22.53;;
52320;SDS011;38261;54.090;13.382;2023-04-15T01:12:30;39.83;;;22.17;;
52320;SDS011;38261;54.090;13.382;2023-04-15T01:13:54;40.90;;;20.37;;
52320;SDS011;38261;54.090;13.382;2023-04-15T01:15:18;42.43;;;21.63;;
52320;SDS011;38261;54.090;13.382;2023-04-15T01:16:40;44.77;;;22.23;;
52320;SDS011;38261;54.090;13.382;2023-04-15T01:18:03;48.90;;;21.40;;
52320;SDS011;38261;54.090;13.382;2023-04-15T01:19:25;44.03;;;22.47;;
52320;SDS011;38261;54.090;13.382;2023-04-15T01:20:48;48.77;;;21.97;;
52320;SDS011;38261;54.090;13.382;2023-04-15T01:22:10;42.00;;;22.00;;
52320;SDS011;38261;54.090;13.382;2023-04-15T01:23:34;42.20;;;22.60;;
52320;SDS011;38261;54.090;13.382;2023-04-15T01:25:04;44.20;;;21.87;;
52320;SDS011;38261;54.090;13.382;2023-04-15T01:26:29;43.23;;;23.23;;
52320;SDS011;38261;54.090;13.382;2023-04-15T01:27:51;42.60;;;22.03;;
52320;SDS011;38261;54.090;13.382;2023-04-15T01:29:13;45.33;;;24.33;;
52320;SDS011;38261;54.090;13.382;2023-04-15T01:30:35;50.73;;;23.17;;
52320;SDS011;38261;54.090;13.382;2023-04-15T01:31:58;43.27;;;22.70;;
52320;SDS011;38261;54.090;13.382;2023-04-15T01:33:20;47.50;;;23.40;;
52320;SDS011;38261;54.090;13.382;2023-04-15T01:34:42;42.57;;;22.60;;
52320;SDS011;38261;54.090;13.382;2023-04-15T01:36:05;42.70;;;20.83;;
52320;SDS011;38261;54.090;13.382;2023-04-15T01:37:29;43.20;;;22.77;;
52320;SDS011;38261;54.090;13.382;2023-04-15T01:38:51;43.67;;;22.47;;
52320;SDS011;38261;54.090;13.382;2023-04-15T01:40:13;44.63;;;21.83;;
52320;SDS011;38261;54.090;13.382;2023-04-15T01:41:35;39.07;;;20.97;;
52320;SDS011;38261;54.090;13.382;2023-04-15T01:42:58;42.40;;;22.13;;
52320;SDS011;38261;54.090;13.382;2023-04-15T01:44:20;47.27;;;22.73;;
52320;SDS011;38261;54.090;13.382;2023-04-15T01:45:42;50.10;;;24.10;;
52320;SDS011;38261;54.090;13.382;2023-04-15T01:47:04;42.60;;;23.10;;
52320;SDS011;38261;54.090;13.382;2023-04-15T01:48:27;42.40;;;21.17;;
52320;SDS011;38261;54.090;13.382;2023-04-15T01:49:49;44.07;;;22.03;;
52320;SDS011;38261;54.090;13.382;2023-04-15T01:51:12;46.80;;;21.83;;
52320;SDS011;38261;54.090;13.382;2023-04-15T01:52:34;49.13;;;23.77;;
52320;SDS011;38261;54.090;13.382;2023-04-15T01:53:56;49.07;;;23.40;;
52320;SDS011;38261;54.090;13.382;2023-04-15T01:55:18;48.70;;;23.00;;
52320;SDS011;38261;54.090;13.382;2023-04-15T01:56:40;49.50;;;23.70;;
52320;SDS011;38261;54.090;13.382;2023-04-15T01:58:02;44.13;;;22.70;;
52320;SDS011;38261;54.090;13.382;2023-04-15T01:59:25;47.60;;;22.50;;
52320;SDS011;38261;54.090;13.382;2023-04-15T02:00:47;45.77;;;23.60;;
52320;SDS011;38261;54.090;13.382;2023-04-15T02:02:09;52.03;;;21.80;;
52320;SDS011;38261;54.090;13.382;2023-04-15T02:03:32;41.60;;;22.57;;
52320;SDS011;38261;54.090;13.382;2023-04-15T02:04:55;53.30;;;23.60;;
52320;SDS011;38261;54.090;13.382;2023-04-15T02:06:17;45.70;;;22.87;;
52320;SDS011;38261;54.090;13.382;2023-04-15T02:07:39;42.60;;;23.07;;
52320;SDS011;38261;54.090;13.382;2023-04-15T02:09:04;52.53;;;22.80;;
52320;SDS011;38261;54.090;13.382;2023-04-15T02:10:26;47.50;;;24.07;;
52320;SDS011;38261;54.090;13.382;2023-04-15T02:11:49;45.10;;;22.87;;
52320;SDS011;38261;54.090;13.382;2023-04-15T02:13:12;47.83;;;22.40;;
52320;SDS011;38261;54.090;13.382;2023-04-15T02:14:34;43.10;;;22.67;;
52320;SDS011;38261;54.090;13.382;2023-04-15T02:15:57;44.00;;;21.70;;
52320;SDS011;38261;54.090;13.382;2023-04-15T02:17:20;46.77;;;22.97;;
52320;SDS011;38261;54.090;13.382;2023-04-15T02:18:45;47.93;;;22.67;;
52320;SDS011;38261;54.090;13.382;2023-04-15T02:20:08;44.03;;;22.30;;
52320;SDS011;38261;54.090;13.382;2023-04-15T02:21:31;46.20;;;23.13;;
52320;SDS011;38261;54.090;13.382;2023-04-15T02:22:57;48.13;;;23.10;;
52320;SDS011;38261;54.090;13.382;2023-04-15T02:24:19;44.40;;;22.43;;
52320;SDS011;38261;54.090;13.382;2023-04-15T02:25:41;41.17;;;21.63;;
52320;SDS011;38261;54.090;13.382;2023-04-15T02:27:14;48.60;;;22.40;;
52320;SDS011;38261;54.090;13.382;2023-04-15T02:28:38;45.50;;;21.80;;
52320;SDS011;38261;54.090;13.382;2023-04-15T02:30:00;48.30;;;21.50;;
52320;SDS011;38261;54.090;13.382;2023-04-15T02:31:22;47.03;;;20.97;;
52320;SDS011;38261;54.090;13.382;2023-04-15T02:32:45;47.73;;;23.37;;
52320;SDS011;38261;54.090;13.382;2023-04-15T02:34:08;44.17;;;23.40;;
52320;SDS011;38261;54.090;13.382;2023-04-15T02:35:30;49.10;;;23.30;;
52320;SDS011;38261;54.090;13.382;2023-04-15T02:36:53;42.73;;;21.87;;
52320;SDS011;38261;54.090;13.382;2023-04-15T02:38:17;39.30;;;21.80;;
52320;SDS011;38261;54.090;13.382;2023-04-15T02:39:39;40.73;;;22.20;;
52320;SDS011;38261;54.090;13.382;2023-04-15T02:41:01;42.20;;;21.83;;
52320;SDS011;38261;54.090;13.382;2023-04-15T02:42:24;42.73;;;23.97;;
52320;SDS011;38261;54.090;13.382;2023-04-15T02:43:48;43.97;;;23.83;;
52320;SDS011;38261;54.090;13.382;2023-04-15T02:45:10;40.90;;;22.00;;
52320;SDS011;38261;54.090;13.382;2023-04-15T02:46:33;45.23;;;22.30;;
52320;SDS011;38261;54.090;13.382;2023-04-15T02:47:55;50.10;;;24.57;;
52320;SDS011;38261;54.090;13.382;2023-04-15T02:49:17;45.47;;;24.53;;
52320;SDS011;38261;54.090;13.382;2023-04-15T02:50:39;44.70;;;21.73;;
52320;SDS011;38261;54.090;13.382;2023-04-15T02:52:01;55.07;;;25.00;;
52320;SDS011;38261;54.090;13.382;2023-04-15T02:53:23;43.70;;;22.90;;
52320;SDS011;38261;54.090;13.382;2023-04-15T02:54:46;42.87;;;24.00;;
52320;SDS011;38261;54.090;13.382;2023-04-15T02:56:08;46.93;;;21.93;;
52320;SDS011;38261;54.090;13.382;2023-04-15T02:57:31;47.57;;;24.63;;
52320;SDS011;38261;54.090;13.382;2023-04-15T02:58:53;42.93;;;22.30;;
52320;SDS011;38261;54.090;13.382;2023-04-15T03:00:16;40.70;;;21.20;;
52320;SDS011;38261;54.090;13.382;2023-04-15T03:01:38;45.37;;;22.40;;
52320;SDS011;38261;54.090;13.382;2023-04-15T03:03:01;42.90;;;23.90;;
52320;SDS011;38261;54.090;13.382;2023-04-15T03:04:25;45.30;;;22.80;;
52320;SDS011;38261;54.090;13.382;2023-04-15T03:05:47;46.53;;;22.23;;
52320;SDS011;38261;54.090;13.382;2023-04-15T03:07:09;48.83;;;22.10;;
52320;SDS011;38261;54.090;13.382;2023-04-15T03:08:31;44.57;;;22.10;;
52320;SDS011;38261;54.090;13.382;2023-04-15T03:09:53;44.80;;;22.30;;
52320;SDS011;38261;54.090;13.382;2023-04-15T03:11:16;41.87;;;21.63;;
52320;SDS011;38261;54.090;13.382;2023-04-15T03:12:39;43.67;;;21.67;;
52320;SDS011;38261;54.090;13.382;2023-04-15T03:14:01;41.30;;;21.63;;
52320;SDS011;38261;54.090;13.382;2023-04-15T03:15:23;59.67;;;23.40;;
52320;SDS011;38261;54.090;13.382;2023-04-15T03:16:45;40.70;;;22.63;;
52320;SDS011;38261;54.090;13.382;2023-04-15T03:18:07;42.67;;;21.70;;
52320;SDS011;38261;54.090;13.382;2023-04-15T03:19:30;42.83;;;20.63;;
52320;SDS011;38261;54.090;13.382;2023-04-15T03:20:52;46.93;;;22.20;;
52320;SDS011;38261;54.090;13.382;2023-04-15T03:22:14;45.07;;;22.53;;
52320;SDS011;38261;54.090;13.382;2023-04-15T03:23:36;46.37;;;21.90;;
52320;SDS011;38261;54.090;13.382;2023-04-15T03:24:58;40.97;;;21.93;;
52320;SDS011;38261;54.090;13.382;2023-04-15T03:26:30;47.50;;;21.93;;
52320;SDS011;38261;54.090;13.382;2023-04-15T03:27:52;40.03;;;22.60;;
52320;SDS011;38261;54.090;13.382;2023-04-15T03:29:14;42.77;;;21.17;;
52320;SDS011;38261;54.090;13.382;2023-04-15T03:30:37;41.70;;;22.27;;
52320;SDS011;38261;54.090;13.382;2023-04-15T03:31:59;41.63;;;21.87;;
52320;SDS011;38261;54.090;13.382;2023-04-15T03:33:21;41.93;;;20.73;;
52320;SDS011;38261;54.090;13.382;2023-04-15T03:34:43;43.53;;;21.90;;
52320;SDS011;38261;54.090;13.382;2023-04-15T03:36:06;44.23;;;21.47;;
52320;SDS011;38261;54.090;13.382;2023-04-15T03:37:28;36.60;;;21.57;;
52320;SDS011;38261;54.090;13.382;2023-04-15T03:38:50;43.97;;;21.43;;
52320;SDS011;38261;54.090;13.382;2023-04-15T03:40:13;45.93;;;22.20;;
52320;SDS011;38261;54.090;13.382;2023-04-15T03:41:36;42.80;;;21.50;;
52320;SDS011;38261;54.090;13.382;2023-04-15T03:42:58;42.43;;;22.70;;
52320;SDS011;38261;54.090;13.382;2023-04-15T03:44:23;43.67;;;22.80;;
52320;SDS011;38261;54.090;13.382;2023-04-15T03:45:47;42.27;;;21.13;;
52320;SDS011;38261;54.090;13.382;2023-04-15T03:47:09;42.53;;;22.57;;
52320;SDS011;38261;54.090;13.382;2023-04-15T03:48:31;38.80;;;21.03;;
52320;SDS011;38261;54.090;13.382;2023-04-15T03:49:54;41.10;;;22.33;;
52320;SDS011;38261;54.090;13.382;2023-04-15T03:51:16;43.53;;;21.63;;
52320;SDS011;38261;54.090;13.382;2023-04-15T03:52:39;44.10;;;22.03;;
52320;SDS011;38261;54.090;13.382;2023-04-15T03:54:01;40.03;;;21.80;;
52320;SDS011;38261;54.090;13.382;2023-04-15T03:55:24;39.27;;;21.87;;
52320;SDS011;38261;54.090;13.382;2023-04-15T03:56:46;37.73;;;20.90;;
52320;SDS011;38261;54.090;13.382;2023-04-15T03:58:09;41.10;;;21.90;;
52320;SDS011;38261;54.090;13.382;2023-04-15T03:59:33;42.83;;;20.23;;
52320;SDS011;38261;54.090;13.382;2023-04-15T04:00:56;41.43;;;20.30;;
52320;SDS011;38261;54.090;13.382;2023-04-15T04:02:18;37.30;;;20.90;;
52320;SDS011;38261;54.090;13.382;2023-04-15T04:03:40;43.20;;;20.93;;
52320;SDS011;38261;54.090;13.382;2023-04-15T04:05:03;36.03;;;20.77;;
52320;SDS011;38261;54.090;13.382;2023-04-15T04:06:25;47.70;;;21.13;;
52320;SDS011;38261;54.090;13.382;2023-04-15T04:07:47;40.90;;;21.37;;
52320;SDS011;38261;54.090;13.382;2023-04-15T04:09:10;37.23;;;21.17;;
52320;SDS011;38261;54.090;13.382;2023-04-15T04:10:32;39.43;;;20.60;;
52320;SDS011;38261;54.090;13.382;2023-04-15T04:11:54;38.50;;;20.70;;
52320;SDS011;38261;54.090;13.382;2023-04-15T04:13:17;38.60;;;20.43;;
52320;SDS011;38261;54.090;13.382;2023-04-15T04:14:39;43.77;;;20.50;;
52320;SDS011;38261;54.090;13.382;2023-04-15T04:16:01;41.23;;;19.77;;
52320;SDS011;38261;54.090;13.382;2023-04-15T04:17:25;34.40;;;19.90;;
52320;SDS011;38261;54.090;13.382;2023-04-15T04:18:47;35.13;;;19.70;;
52320;SDS011;38261;54.090;13.382;2023-04-15T04:20:10;35.77;;;20.03;;
52320;SDS011;38261;54.090;13.382;2023-04-15T04:21:32;34.37;;;19.70;;
52320;SDS011;38261;54.090;13.382;2023-04-15T04:22:55;29.70;;;18.00;;
52320;SDS011;38261;54.090;13.382;2023-04-15T04:24:17;35.73;;;21.57;;
52320;SDS011;38261;54.090;13.382;2023-04-15T04:25:39;42.57;;;19.50;;
52320;SDS011;38261;54.090;13.382;2023-04-15T04:27:01;31.23;;;18.37;;
52320;SDS011;38261;54.090;13.382;2023-04-15T04:28:24;38.33;;;19.00;;
52320;SDS011;38261;54.090;13.382;2023-04-15T04:29:46;34.17;;;19.00;;
52320;SDS011;38261;54.090;13.382;2023-04-15T04:31:10;32.43;;;17.60;;
52320;SDS011;38261;54.090;13.382;2023-04-15T04:32:32;32.83;;;18.60;;
52320;SDS011;38261;54.090;13.382;2023-04-15T04:33:54;35.93;;;19.40;;
52320;SDS011;38261;54.090;13.382;2023-04-15T04:35:16;39.93;;;20.47;;
52320;SDS011;38261;54.090;13.382;2023-04-15T04:36:38;36.37;;;20.83;;
52320;SDS011;38261;54.090;13.382;2023-04-15T04:38:01;38.40;;;20.40;;
52320;SDS011;38261;54.090;13.382;2023-04-15T04:39:23;37.63;;;19.20;;
52320;SDS011;38261;54.090;13.382;2023-04-15T04:40:45;36.87;;;20.37;;
52320;SDS011;38261;54.090;13.382;2023-04-15T04:42:07;36.10;;;19.30;;
52320;SDS011;38261;54.090;13.382;2023-04-15T04:43:29;37.10;;;19.50;;
52320;SDS011;38261;54.090;13.382;2023-04-15T04:44:51;44.00;;;18.87;;
52320;SDS011;38261;54.090;13.382;2023-04-15T04:46:13;31.10;;;18.27;;
52320;SDS011;38261;54.090;13.382;2023-04-15T04:47:36;27.40;;;18.07;;
52320;SDS011;38261;54.090;13.382;2023-04-15T04:48:58;28.23;;;17.20;;
52320;SDS011;38261;54.090;13.382;2023-04-15T04:50:20;22.97;;;15.20;;
52320;SDS011;38261;54.090;13.382;2023-04-15T04:51:42;29.63;;;16.10;;
52320;SDS011;38261;54.090;13.382;2023-04-15T04:53:04;24.70;;;14.50;;
52320;SDS011;38261;54.090;13.382;2023-04-15T04:54:26;22.63;;;14.93;;
52320;SDS011;38261;54.090;13.382;2023-04-15T04:55:48;26.50;;;15.93;;
52320;SDS011;38261;54.090;13.382;2023-04-15T04:57:10;22.73;;;14.23;;
52320;SDS011;38261;54.090;13.382;2023-04-15T04:58:34;22.10;;;13.37;;
52320;SDS011;38261;54.090;13.382;2023-04-15T04:59:56;23.50;;;14.40;;
52320;SDS011;38261;54.090;13.382;2023-04-15T05:01:18;21.90;;;13.43;;
52320;SDS011;38261;54.090;13.382;2023-04-15T05:02:40;23.17;;;14.17;;
52320;SDS011;38261;54.090;13.382;2023-04-15T05:04:04;20.70;;;12.63;;
52320;SDS011;38261;54.090;13.382;2023-04-15T05:05:28;21.27;;;13.00;;
52320;SDS011;38261;54.090;13.382;2023-04-15T05:06:50;24.10;;;13.23;;
52320;SDS011;38261;54.090;13.382;2023-04-15T05:08:12;21.03;;;13.47;;
52320;SDS011;38261;54.090;13.382;2023-04-15T05:09:34;20.73;;;13.23;;
52320;SDS011;38261;54.090;13.382;2023-04-15T05:10:57;21.40;;;12.53;;
52320;SDS011;38261;54.090;13.382;2023-04-15T05:12:19;20.90;;;12.20;;
52320;SDS011;38261;54.090;13.382;2023-04-15T05:13:41;18.93;;;11.60;;
52320;SDS011;38261;54.090;13.382;2023-04-15T05:15:04;17.40;;;11.10;;
52320;SDS011;38261;54.090;13.382;2023-04-15T05:16:27;15.80;;;11.60;;
52320;SDS011;38261;54.090;13.382;2023-04-15T05:17:49;19.00;;;10.83;;
52320;SDS011;38261;54.090;13.382;2023-04-15T05:19:12;16.70;;;11.50;;
52320;SDS011;38261;54.090;13.382;2023-04-15T05:20:34;22.50;;;11.00;;
52320;SDS011;38261;54.090;13.382;2023-04-15T05:21:56;16.13;;;10.80;;
52320;SDS011;38261;54.090;13.382;2023-04-15T05:23:18;19.17;;;9.60;;
52320;SDS011;38261;54.090;13.382;2023-04-15T05:24:40;17.27;;;10.40;;
52320;SDS011;38261;54.090;13.382;2023-04-15T05:26:02;14.23;;;10.47;;
52320;SDS011;38261;54.090;13.382;2023-04-15T05:27:24;17.23;;;10.40;;
52320;SDS011;38261;54.090;13.382;2023-04-15T05:28:46;17.83;;;11.07;;
52320;SDS011;38261;54.090;13.382;2023-04-15T05:30:08;15.00;;;10.83;;
52320;SDS011;38261;54.090;13.382;2023-04-15T05:31:33;19.20;;;10.47;;
52320;SDS011;38261;54.090;13.382;2023-04-15T05:32:56;15.93;;;10.47;;
52320;SDS011;38261;54.090;13.382;2023-04-15T05:34:19;18.17;;;10.60;;
52320;SDS011;38261;54.090;13.382;2023-04-15T05:35:41;16.63;;;10.17;;
52320;SDS011;38261;54.090;13.382;2023-04-15T05:37:03;17.00;;;10.60;;
52320;SDS011;38261;54.090;13.382;2023-04-15T05:38:25;18.70;;;11.80;;
52320;SDS011;38261;54.090;13.382;2023-04-15T05:39:47;17.67;;;10.80;;
52320;SDS011;38261;54.090;13.382;2023-04-15T05:41:09;14.57;;;10.10;;
52320;SDS011;38261;54.090;13.382;2023-04-15T05:42:31;17.13;;;10.97;;
52320;SDS011;38261;54.090;13.382;2023-04-15T05:43:53;19.00;;;11.47;;
52320;SDS011;38261;54.090;13.382;2023-04-15T05:45:16;18.10;;;11.53;;
52320;SDS011;38261;54.090;13.382;2023-04-15T05:46:38;16.27;;;10.47;;
52320;SDS011;38261;54.090;13.382;2023-04-15T05:48:00;17.63;;;11.03;;
52320;SDS011;38261;54.090;13.382;2023-04-15T05:49:23;14.60;;;10.60;;
52320;SDS011;38261;54.090;13.382;2023-04-15T05:50:45;18.97;;;10.37;;
52320;SDS011;38261;54.090;13.382;2023-04-15T05:52:07;17.40;;;11.90;;
52320;SDS011;38261;54.090;13.382;2023-04-15T05:53:29;23.90;;;15.30;;
52320;SDS011;38261;54.090;13.382;2023-04-15T05:54:52;20.03;;;13.40;;
52320;SDS011;38261;54.090;13.382;2023-04-15T05:56:14;15.30;;;11.83;;
52320;SDS011;38261;54.090;13.382;2023-04-15T05:57:36;15.83;;;11.50;;
52320;SDS011;38261;54.090;13.382;2023-04-15T05:58:58;19.50;;;12.73;;
52320;SDS011;38261;54.090;13.382;2023-04-15T06:00:21;39.17;;;23.97;;
52320;SDS011;38261;54.090;13.382;2023-04-15T06:01:43;19.90;;;13.53;;
52320;SDS011;38261;54.090;13.382;2023-04-15T06:03:05;19.93;;;12.87;;
52320;SDS011;38261;54.090;13.382;2023-04-15T06:04:28;19.10;;;13.50;;
52320;SDS011;38261;54.090;13.382;2023-04-15T06:05:51;18.50;;;12.70;;
52320;SDS011;38261;54.090;13.382;2023-04-15T06:07:13;17.23;;;13.37;;
52320;SDS011;38261;54.090;13.382;2023-04-15T06:08:35;19.80;;;12.40;;
52320;SDS011;38261;54.090;13.382;2023-04-15T06:09:57;18.47;;;12.43;;
52320;SDS011;38261;54.090;13.382;2023-04-15T06:11:20;25.90;;;15.60;;
52320;SDS011;38261;54.090;13.382;2023-04-15T06:12:42;20.03;;;14.73;;
52320;SDS011;38261;54.090;13.382;2023-04-15T06:14:04;21.70;;;14.43;;
52320;SDS011;38261;54.090;13.382;2023-04-15T06:15:26;19.50;;;13.63;;
52320;SDS011;38261;54.090;13.382;2023-04-15T06:16:48;18.60;;;13.00;;
52320;SDS011;38261;54.090;13.382;2023-04-15T06:18:11;22.00;;;15.00;;
52320;SDS011;38261;54.090;13.382;2023-04-15T06:19:33;19.83;;;12.80;;
52320;SDS011;38261;54.090;13.382;2023-04-15T06:20:57;23.23;;;13.27;;
52320;SDS011;38261;54.090;13.382;2023-04-15T06:22:19;21.77;;;13.10;;
52320;SDS011;38261;54.090;13.382;2023-04-15T06:23:44;20.80;;;14.10;;
52320;SDS011;38261;54.090;13.382;2023-04-15T06:25:06;19.10;;;12.90;;
52320;SDS011;38261;54.090;13.382;2023-04-15T06:26:29;20.07;;;13.10;;
52320;SDS011;38261;54.090;13.382;2023-04-15T06:27:51;21.70;;;13.57;;
52320;SDS011;38261;54.090;13.382;2023-04-15T06:29:13;21.03;;;14.10;;
52320;SDS011;38261;54.090;13.382;2023-04-15T06:30:36;18.30;;;13.27;;
52320;SDS011;38261;54.090;13.382;2023-04-15T06:31:58;20.50;;;13.40;;
52320;SDS011;38261;54.090;13.382;2023-04-15T06:33:21;19.60;;;13.20;;
52320;SDS011;38261;54.090;13.382;2023-04-15T06:34:43;22.33;;;12.77;;
52320;SDS011;38261;54.090;13.382;2023-04-15T06:36:05;24.23;;;13.27;;
52320;SDS011;38261;54.090;13.382;2023-04-15T06:37:27;21.73;;;14.10;;
52320;SDS011;38261;54.090;13.382;2023-04-15T06:38:49;20.00;;;13.30;;
52320;SDS011;38261;54.090;13.382;2023-04-15T06:40:12;19.33;;;13.80;;
52320;SDS011;38261;54.090;13.382;2023-04-15T06:41:34;24.77;;;13.03;;
52320;SDS011;38261;54.090;13.382;2023-04-15T06:42:57;17.17;;;13.20;;
52320;SDS011;38261;54.090;13.382;2023-04-15T06:44:19;20.00;;;14.33;;
52320;SDS011;38261;54.090;13.382;2023-04-15T06:45:41;30.07;;;14.93;;
52320;SDS011;38261;54.090;13.382;2023-04-15T06:47:03;23.90;;;13.07;;
52320;SDS011;38261;54.090;13.382;2023-04-15T06:48:25;22.83;;;13.93;;
52320;SDS011;38261;54.090;13.382;2023-04-15T06:49:48;21.30;;;14.93;;
52320;SDS011;38261;54.090;13.382;2023-04-15T06:51:10;22.67;;;14.37;;
52320;SDS011;38261;54.090;13.382;2023-04-15T06:52:32;19.10;;;13.93;;
52320;SDS011;38261;54.090;13.382;2023-04-15T06:53:54;19.20;;;13.30;;
52320;SDS011;38261;54.090;13.382;2023-04-15T06:55:17;22.40;;;14.57;;
52320;SDS011;38261;54.090;13.382;2023-04-15T06:56:39;19.33;;;13.63;;
52320;SDS011;38261;54.090;13.382;2023-04-15T06:58:02;19.20;;;13.07;;
52320;SDS011;38261;54.090;13.382;2023-04-15T06:59:24;22.53;;;14.27;;
52320;SDS011;38261;54.090;13.382;2023-04-15T07:00:47;21.90;;;13.70;;
52320;SDS011;38261;54.090;13.382;2023-04-15T07:02:10;21.20;;;13.60;;
52320;SDS011;38261;54.090;13.382;2023-04-15T07:03:34;19.53;;;14.07;;
52320;SDS011;38261;54.090;13.382;2023-04-15T07:04:56;22.53;;;13.17;;
52320;SDS011;38261;54.090;13.382;2023-04-15T07:06:19;19.17;;;13.70;;
52320;SDS011;38261;54.090;13.382;2023-04-15T07:07:42;20.93;;;13.57;;
52320;SDS011;38261;54.090;13.382;2023-04-15T07:09:04;19.30;;;13.43;;
52320;SDS011;38261;54.090;13.382;2023-04-15T07:10:26;22.33;;;12.60;;
52320;SDS011;38261;54.090;13.382;2023-04-15T07:11:49;17.73;;;12.90;;
52320;SDS011;38261;54.090;13.382;2023-04-15T07:13:12;19.10;;;12.60;;
52320;SDS011;38261;54.090;13.382;2023-04-15T07:14:34;22.13;;;14.53;;
52320;SDS011;38261;54.090;13.382;2023-04-15T07:15:57;23.50;;;14.47;;
52320;SDS011;38261;54.090;13.382;2023-04-15T07:17:20;21.20;;;13.07;;
52320;SDS011;38261;54.090;13.382;2023-04-15T07:18:42;23.97;;;13.63;;
52320;SDS011;38261;54.090;13.382;2023-04-15T07:20:05;23.87;;;13.60;;
52320;SDS011;38261;54.090;13.382;2023-04-15T07:21:27;19.30;;;12.50;;
52320;SDS011;38261;54.090;13.382;2023-04-15T07:22:50;18.70;;;12.73;;
52320;SDS011;38261;54.090;13.382;2023-04-15T07:24:12;22.37;;;14.10;;
52320;SDS011;38261;54.090;13.382;2023-04-15T07:25:38;23.77;;;14.23;;
52320;SDS011;38261;54.090;13.382;2023-04-15T07:27:00;19.30;;;12.27;;
52320;SDS011;38261;54.090;13.382;2023-04-15T07:28:23;26.53;;;13.60;;
52320;SDS011;38261;54.090;13.382;2023-04-15T07:29:45;25.03;;;13.33;;
52320;SDS011;38261;54.090;13.382;2023-04-15T07:31:07;20.87;;;13.03;;
52320;SDS011;38261;54.090;13.382;2023-04-15T07:32:30;30.63;;;14.60;;
52320;SDS011;38261;54.090;13.382;2023-04-15T07:33:52;41.40;;;14.57;;
52320;SDS011;38261;54.090;13.382;2023-04-15T07:35:14;20.40;;;14.17;;
52320;SDS011;38261;54.090;13.382;2023-04-15T07:36:37;21.13;;;13.23;;
52320;SDS011;38261;54.090;13.382;2023-04-15T07:37:59;20.93;;;13.90;;
52320;SDS011;38261;54.090;13.382;2023-04-15T07:39:21;20.97;;;14.23;;
52320;SDS011;38261;54.090;13.382;2023-04-15T07:40:44;21.90;;;13.07;;
52320;SDS011;38261;54.090;13.382;2023-04-15T07:42:07;22.07;;;13.90;;
52320;SDS011;38261;54.090;13.382;2023-04-15T07:43:30;20.70;;;13.63;;
52320;SDS011;38261;54.090;13.382;2023-04-15T07:44:52;22.30;;;13.73;;
52320;SDS011;38261;54.090;13.382;2023-04-15T07:46:14;21.87;;;14.07;;
52320;SDS011;38261;54.090;13.382;2023-04-15T07:47:36;24.43;;;15.00;;
52320;SDS011;38261;54.090;13.382;2023-04-15T07:48:59;19.57;;;13.53;;
52320;SDS011;38261;54.090;13.382;2023-04-15T07:50:22;20.50;;;14.70;;
52320;SDS011;38261;54.090;13.382;2023-04-15T07:51:45;22.07;;;13.83;;
52320;SDS011;38261;54.090;13.382;2023-04-15T07:53:07;22.97;;;14.00;;
52320;SDS011;38261;54.090;13.382;2023-04-15T07:54:30;21.00;;;14.20;;
52320;SDS011;38261;54.090;13.382;2023-04-15T07:55:53;19.30;;;13.00;;